sensor_id;sensor_type;location;lat;lon;timestamp;P1;durP1;ratioP1;P2;durP2;ratioP2
8254;SDS011;4167;48.162;11.542;2023-03-14T00:00:57;247.70;;;56.43;;
8254;SDS011;4167;48.162;11.542;2023-03-14T00:03:24;219.73;;;55.23;;
8254;SDS011;4167;48.162;11.542;2023-03-14T00:05:50;245.30;;;56.57;;
8254;SDS011;4167;48.162;11.542;2023-03-14T00:08:17;191.97;;;54.03;;
8254;SDS011;4167;48.162;11.542;2023-03-14T00:10:46;207.73;;;54.67;;
8254;SDS011;4167;48.162;11.542;2023-03-14T00:13:14;232.80;;;55.87;;
8254;SDS011;4167;48.162;11.542;2023-03-14T00:15:41;175.50;;;53.20;;
8254;SDS011;4167;48.162;11.542;2023-03-14T00:18:07;217.47;;;55.17;;
8254;SDS011;4167;48.162;11.542;2023-03-14T00:20:36;216.30;;;55.00;;
8254;SDS011;4167;48.162;11.542;2023-03-14T00:23:03;210.87;;;55.03;;
8254;SDS011;4167;48.162;11.542;2023-03-14T00:25:29;205.40;;;54.17;;
8254;SDS011;4167;48.162;11.542;2023-03-14T00:27:56;247.53;;;56.30;;
8254;SDS011;4167;48.162;11.542;2023-03-14T00:30:24;187.10;;;53.50;;
8254;SDS011;4167;48.162;11.542;2023-03-14T00:32:51;210.37;;;55.33;;
8254;SDS011;4167;48.162;11.542;2023-03-14T00:35:17;230.90;;;56.57;;
8254;SDS011;4167;48.162;11.542;2023-03-14T00:37:44;197.13;;;54.23;;
8254;SDS011;4167;48.162;11.542;2023-03-14T00:40:11;212.70;;;55.00;;
8254;SDS011;4167;48.162;11.542;2023-03-14T00:42:38;179.17;;;53.63;;
8254;SDS011;4167;48.162;11.542;2023-03-14T00:45:05;198.47;;;54.23;;
8254;SDS011;4167;48.162;11.542;2023-03-14T00:47:35;216.20;;;55.43;;
8254;SDS011;4167;48.162;11.542;2023-03-14T00:50:02;259.83;;;57.57;;
8254;SDS011;4167;48.162;11.542;2023-03-14T00:52:28;183.00;;;53.63;;
8254;SDS011;4167;48.162;11.542;2023-03-14T00:54:55;246.83;;;56.80;;
8254;SDS011;4167;48.162;11.542;2023-03-14T00:57:22;200.10;;;55.17;;
8254;SDS011;4167;48.162;11.542;2023-03-14T00:59:50;210.13;;;55.07;;
8254;SDS011;4167;48.162;11.542;2023-03-14T01:02:16;288.03;;;58.90;;
8254;SDS011;4167;48.162;11.542;2023-03-14T01:04:44;212.00;;;55.30;;
8254;SDS011;4167;48.162;11.542;2023-03-14T01:07:13;237.27;;;56.27;;
8254;SDS011;4167;48.162;11.542;2023-03-14T01:09:40;235.93;;;56.47;;
8254;SDS011;4167;48.162;11.542;2023-03-14T01:12:07;255.30;;;57.07;;
8254;SDS011;4167;48.162;11.542;2023-03-14T01:14:33;187.50;;;54.03;;
8254;SDS011;4167;48.162;11.542;2023-03-14T01:17:00;239.60;;;56.40;;
8254;SDS011;4167;48.162;11.542;2023-03-14T01:19:29;233.30;;;56.30;;
8254;SDS011;4167;48.162;11.542;2023-03-14T01:22:03;234.93;;;56.70;;
8254;SDS011;4167;48.162;11.542;2023-03-14T01:24:30;205.70;;;55.03;;
8254;SDS011;4167;48.162;11.542;2023-03-14T01:26:56;263.73;;;57.70;;
8254;SDS011;4167;48.162;11.542;2023-03-14T01:29:23;202.63;;;54.70;;
8254;SDS011;4167;48.162;11.542;2023-03-14T01:31:50;228.00;;;56.10;;
8254;SDS011;4167;48.162;11.542;2023-03-14T01:34:16;246.80;;;56.73;;
8254;SDS011;4167;48.162;11.542;2023-03-14T01:36:43;192.37;;;54.47;;
8254;SDS011;4167;48.162;11.542;2023-03-14T01:39:11;228.43;;;56.20;;
8254;SDS011;4167;48.162;11.542;2023-03-14T01:41:38;238.50;;;56.37;;
8254;SDS011;4167;48.162;11.542;2023-03-14T01:44:08;240.17;;;56.90;;
8254;SDS011;4167;48.162;11.542;2023-03-14T01:46:36;326.43;;;60.57;;
8254;SDS011;4167;48.162;11.542;2023-03-14T01:49:09;201.17;;;54.83;;
8254;SDS011;4167;48.162;11.542;2023-03-14T01:51:41;221.93;;;55.80;;
8254;SDS011;4167;48.162;11.542;2023-03-14T01:54:13;217.90;;;55.93;;
8254;SDS011;4167;48.162;11.542;2023-03-14T01:56:41;219.63;;;55.53;;
8254;SDS011;4167;48.162;11.542;2023-03-14T01:59:11;187.17;;;54.33;;
8254;SDS011;4167;48.162;11.542;2023-03-14T02:01:38;216.37;;;55.03;;
8254;SDS011;4167;48.162;11.542;2023-03-14T02:04:08;171.13;;;53.00;;
8254;SDS011;4167;48.162;11.542;2023-03-14T02:06:37;168.90;;;52.50;;
8254;SDS011;4167;48.162;11.542;2023-03-14T02:09:08;166.07;;;52.60;;
8254;SDS011;4167;48.162;11.542;2023-03-14T02:11:37;176.30;;;53.70;;
8254;SDS011;4167;48.162;11.542;2023-03-14T02:14:03;172.57;;;52.90;;
8254;SDS011;4167;48.162;11.542;2023-03-14T02:16:30;173.97;;;53.60;;
8254;SDS011;4167;48.162;11.542;2023-03-14T02:18:57;185.63;;;53.87;;
8254;SDS011;4167;48.162;11.542;2023-03-14T02:21:25;150.97;;;51.90;;
8254;SDS011;4167;48.162;11.542;2023-03-14T02:23:59;169.00;;;52.90;;
8254;SDS011;4167;48.162;11.542;2023-03-14T02:26:31;155.43;;;51.83;;
8254;SDS011;4167;48.162;11.542;2023-03-14T02:29:03;156.63;;;52.30;;
8254;SDS011;4167;48.162;11.542;2023-03-14T02:31:30;154.33;;;52.17;;
8254;SDS011;4167;48.162;11.542;2023-03-14T02:33:57;168.17;;;52.67;;
8254;SDS011;4167;48.162;11.542;2023-03-14T02:36:24;152.30;;;51.87;;
8254;SDS011;4167;48.162;11.542;2023-03-14T02:38:52;164.50;;;52.50;;
8254;SDS011;4167;48.162;11.542;2023-03-14T02:41:19;206.67;;;54.57;;
8254;SDS011;4167;48.162;11.542;2023-03-14T02:43:46;175.20;;;53.20;;
8254;SDS011;4167;48.162;11.542;2023-03-14T02:46:14;165.17;;;53.00;;
8254;SDS011;4167;48.162;11.542;2023-03-14T02:48:44;157.63;;;51.90;;
8254;SDS011;4167;48.162;11.542;2023-03-14T02:51:12;172.53;;;52.97;;
8254;SDS011;4167;48.162;11.542;2023-03-14T02:53:40;165.90;;;52.73;;
8254;SDS011;4167;48.162;11.542;2023-03-14T02:56:08;174.90;;;52.47;;
8254;SDS011;4167;48.162;11.542;2023-03-14T02:58:35;155.20;;;52.00;;
8254;SDS011;4167;48.162;11.542;2023-03-14T03:01:01;162.90;;;52.63;;
8254;SDS011;4167;48.162;11.542;2023-03-14T03:03:29;192.50;;;53.43;;
8254;SDS011;4167;48.162;11.542;2023-03-14T03:05:56;182.33;;;53.40;;
8254;SDS011;4167;48.162;11.542;2023-03-14T03:08:24;169.73;;;52.63;;
8254;SDS011;4167;48.162;11.542;2023-03-14T03:10:52;182.93;;;53.43;;
8254;SDS011;4167;48.162;11.542;2023-03-14T03:13:19;176.77;;;52.30;;
8254;SDS011;4167;48.162;11.542;2023-03-14T03:15:45;146.80;;;51.93;;
8254;SDS011;4167;48.162;11.542;2023-03-14T03:18:12;178.87;;;53.23;;
8254;SDS011;4167;48.162;11.542;2023-03-14T03:20:40;146.17;;;51.40;;
8254;SDS011;4167;48.162;11.542;2023-03-14T03:23:07;169.83;;;52.97;;
8254;SDS011;4167;48.162;11.542;2023-03-14T03:25:35;165.07;;;52.67;;
8254;SDS011;4167;48.162;11.542;2023-03-14T03:28:02;159.50;;;52.03;;
8254;SDS011;4167;48.162;11.542;2023-03-14T03:30:32;148.03;;;51.97;;
8254;SDS011;4167;48.162;11.542;2023-03-14T03:32:59;182.53;;;53.40;;
8254;SDS011;4167;48.162;11.542;2023-03-14T03:35:26;182.37;;;53.97;;
8254;SDS011;4167;48.162;11.542;2023-03-14T03:37:53;210.80;;;54.70;;
8254;SDS011;4167;48.162;11.542;2023-03-14T03:40:20;189.03;;;54.20;;
8254;SDS011;4167;48.162;11.542;2023-03-14T03:42:46;163.80;;;53.13;;
8254;SDS011;4167;48.162;11.542;2023-03-14T03:45:13;220.80;;;55.50;;
8254;SDS011;4167;48.162;11.542;2023-03-14T03:47:40;182.27;;;53.50;;
8254;SDS011;4167;48.162;11.542;2023-03-14T03:50:07;209.47;;;55.37;;
8254;SDS011;4167;48.162;11.542;2023-03-14T03:52:34;156.20;;;52.07;;
8254;SDS011;4167;48.162;11.542;2023-03-14T03:55:02;164.87;;;52.93;;
8254;SDS011;4167;48.162;11.542;2023-03-14T03:57:29;172.87;;;52.80;;
8254;SDS011;4167;48.162;11.542;2023-03-14T03:59:58;156.23;;;52.03;;
8254;SDS011;4167;48.162;11.542;2023-03-14T04:02:24;178.33;;;53.87;;
8254;SDS011;4167;48.162;11.542;2023-03-14T04:04:51;185.20;;;53.43;;
8254;SDS011;4167;48.162;11.542;2023-03-14T04:07:20;199.80;;;54.77;;
8254;SDS011;4167;48.162;11.542;2023-03-14T04:09:46;224.43;;;56.00;;
8254;SDS011;4167;48.162;11.542;2023-03-14T04:12:14;155.53;;;52.43;;
8254;SDS011;4167;48.162;11.542;2023-03-14T04:14:41;158.57;;;52.70;;
8254;SDS011;4167;48.162;11.542;2023-03-14T04:17:08;197.80;;;54.77;;
8254;SDS011;4167;48.162;11.542;2023-03-14T04:19:35;192.70;;;54.73;;
8254;SDS011;4167;48.162;11.542;2023-03-14T04:22:01;184.17;;;54.47;;
8254;SDS011;4167;48.162;11.542;2023-03-14T04:24:28;229.27;;;55.97;;
8254;SDS011;4167;48.162;11.542;2023-03-14T04:26:55;207.73;;;55.23;;
8254;SDS011;4167;48.162;11.542;2023-03-14T04:29:23;176.50;;;53.43;;
8254;SDS011;4167;48.162;11.542;2023-03-14T04:31:49;181.87;;;53.60;;
8254;SDS011;4167;48.162;11.542;2023-03-14T04:34:16;177.67;;;53.47;;
8254;SDS011;4167;48.162;11.542;2023-03-14T04:36:43;199.63;;;54.27;;
8254;SDS011;4167;48.162;11.542;2023-03-14T04:39:09;176.47;;;53.90;;
8254;SDS011;4167;48.162;11.542;2023-03-14T04:41:36;193.47;;;53.93;;
8254;SDS011;4167;48.162;11.542;2023-03-14T04:44:05;224.50;;;55.30;;
8254;SDS011;4167;48.162;11.542;2023-03-14T04:46:33;193.23;;;53.83;;
8254;SDS011;4167;48.162;11.542;2023-03-14T04:48:59;199.67;;;54.07;;
8254;SDS011;4167;48.162;11.542;2023-03-14T04:51:26;173.80;;;52.77;;
8254;SDS011;4167;48.162;11.542;2023-03-14T04:53:53;219.60;;;55.03;;
8254;SDS011;4167;48.162;11.542;2023-03-14T04:56:20;176.87;;;53.23;;
8254;SDS011;4167;48.162;11.542;2023-03-14T04:58:47;166.80;;;52.57;;
8254;SDS011;4167;48.162;11.542;2023-03-14T05:01:13;194.63;;;53.77;;
8254;SDS011;4167;48.162;11.542;2023-03-14T05:03:41;157.30;;;52.30;;
8254;SDS011;4167;48.162;11.542;2023-03-14T05:06:08;147.00;;;51.73;;
8254;SDS011;4167;48.162;11.542;2023-03-14T05:08:35;190.33;;;53.57;;
8254;SDS011;4167;48.162;11.542;2023-03-14T05:11:01;237.10;;;56.03;;
8254;SDS011;4167;48.162;11.542;2023-03-14T05:13:29;277.57;;;58.60;;
8254;SDS011;4167;48.162;11.542;2023-03-14T05:16:02;233.57;;;55.63;;
8254;SDS011;4167;48.162;11.542;2023-03-14T05:18:29;258.03;;;56.80;;
8254;SDS011;4167;48.162;11.542;2023-03-14T05:20:57;216.47;;;54.47;;
8254;SDS011;4167;48.162;11.542;2023-03-14T05:23:24;219.70;;;55.50;;
8254;SDS011;4167;48.162;11.542;2023-03-14T05:25:50;168.83;;;52.60;;
8254;SDS011;4167;48.162;11.542;2023-03-14T05:28:17;252.53;;;56.77;;
8254;SDS011;4167;48.162;11.542;2023-03-14T05:30:43;178.57;;;53.20;;
8254;SDS011;4167;48.162;11.542;2023-03-14T05:33:10;219.03;;;55.07;;
8254;SDS011;4167;48.162;11.542;2023-03-14T05:35:36;209.03;;;54.27;;
8254;SDS011;4167;48.162;11.542;2023-03-14T05:38:05;263.83;;;57.37;;
8254;SDS011;4167;48.162;11.542;2023-03-14T05:40:31;314.27;;;59.30;;
8254;SDS011;4167;48.162;11.542;2023-03-14T05:42:58;364.47;;;62.60;;
8254;SDS011;4167;48.162;11.542;2023-03-14T05:45:25;352.47;;;61.87;;
8254;SDS011;4167;48.162;11.542;2023-03-14T05:47:51;363.87;;;62.20;;
8254;SDS011;4167;48.162;11.542;2023-03-14T05:50:18;399.10;;;64.40;;
8254;SDS011;4167;48.162;11.542;2023-03-14T05:52:44;265.83;;;57.60;;
8254;SDS011;4167;48.162;11.542;2023-03-14T05:55:12;334.97;;;60.63;;
8254;SDS011;4167;48.162;11.542;2023-03-14T05:57:39;334.80;;;60.60;;
8254;SDS011;4167;48.162;11.542;2023-03-14T06:00:06;412.73;;;65.27;;
8254;SDS011;4167;48.162;11.542;2023-03-14T06:02:33;293.33;;;58.30;;
8254;SDS011;4167;48.162;11.542;2023-03-14T06:05:00;340.37;;;61.57;;
8254;SDS011;4167;48.162;11.542;2023-03-14T06:07:27;246.23;;;56.33;;
8254;SDS011;4167;48.162;11.542;2023-03-14T06:09:53;328.93;;;60.50;;
8254;SDS011;4167;48.162;11.542;2023-03-14T06:12:21;208.73;;;54.27;;
8254;SDS011;4167;48.162;11.542;2023-03-14T06:14:48;254.70;;;57.03;;
8254;SDS011;4167;48.162;11.542;2023-03-14T06:17:14;354.33;;;62.03;;
8254;SDS011;4167;48.162;11.542;2023-03-14T06:19:41;257.07;;;57.03;;
8254;SDS011;4167;48.162;11.542;2023-03-14T06:22:07;277.53;;;59.07;;
8254;SDS011;4167;48.162;11.542;2023-03-14T06:24:34;319.23;;;59.93;;
8254;SDS011;4167;48.162;11.542;2023-03-14T06:27:01;408.33;;;64.73;;
8254;SDS011;4167;48.162;11.542;2023-03-14T06:29:29;318.77;;;60.17;;
8254;SDS011;4167;48.162;11.542;2023-03-14T06:31:58;398.73;;;64.20;;
8254;SDS011;4167;48.162;11.542;2023-03-14T06:34:24;349.73;;;62.17;;
8254;SDS011;4167;48.162;11.542;2023-03-14T06:36:51;287.23;;;59.07;;
8254;SDS011;4167;48.162;11.542;2023-03-14T06:39:17;515.73;;;70.87;;
8254;SDS011;4167;48.162;11.542;2023-03-14T06:41:44;295.43;;;59.13;;
8254;SDS011;4167;48.162;11.542;2023-03-14T06:44:11;280.33;;;58.97;;
8254;SDS011;4167;48.162;11.542;2023-03-14T06:46:39;312.53;;;59.97;;
8254;SDS011;4167;48.162;11.542;2023-03-14T06:49:05;333.50;;;61.20;;
8254;SDS011;4167;48.162;11.542;2023-03-14T06:51:32;422.60;;;66.80;;
8254;SDS011;4167;48.162;11.542;2023-03-14T06:53:59;426.60;;;65.87;;
8254;SDS011;4167;48.162;11.542;2023-03-14T06:56:25;381.50;;;64.00;;
8254;SDS011;4167;48.162;11.542;2023-03-14T06:58:52;423.07;;;65.87;;
8254;SDS011;4167;48.162;11.542;2023-03-14T07:01:20;373.90;;;63.17;;
8254;SDS011;4167;48.162;11.542;2023-03-14T07:03:49;312.73;;;59.50;;
8254;SDS011;4167;48.162;11.542;2023-03-14T07:06:16;384.73;;;64.57;;
8254;SDS011;4167;48.162;11.542;2023-03-14T07:08:43;362.93;;;62.47;;
8254;SDS011;4167;48.162;11.542;2023-03-14T07:11:09;345.47;;;61.80;;
8254;SDS011;4167;48.162;11.542;2023-03-14T07:13:37;385.50;;;64.10;;
8254;SDS011;4167;48.162;11.542;2023-03-14T07:16:04;363.07;;;62.70;;
8254;SDS011;4167;48.162;11.542;2023-03-14T07:18:31;429.33;;;66.67;;
8254;SDS011;4167;48.162;11.542;2023-03-14T07:20:59;463.73;;;68.37;;
8254;SDS011;4167;48.162;11.542;2023-03-14T07:23:26;335.53;;;61.57;;
8254;SDS011;4167;48.162;11.542;2023-03-14T07:25:52;380.80;;;63.47;;
8254;SDS011;4167;48.162;11.542;2023-03-14T07:28:19;382.57;;;63.50;;
8254;SDS011;4167;48.162;11.542;2023-03-14T07:30:48;399.87;;;65.33;;
8254;SDS011;4167;48.162;11.542;2023-03-14T07:33:15;486.17;;;69.57;;
8254;SDS011;4167;48.162;11.542;2023-03-14T07:35:41;488.70;;;69.23;;
8254;SDS011;4167;48.162;11.542;2023-03-14T07:38:13;356.10;;;62.43;;
8254;SDS011;4167;48.162;11.542;2023-03-14T07:40:40;293.97;;;59.07;;
8254;SDS011;4167;48.162;11.542;2023-03-14T07:43:08;463.30;;;67.93;;
8254;SDS011;4167;48.162;11.542;2023-03-14T07:45:36;371.27;;;63.50;;
8254;SDS011;4167;48.162;11.542;2023-03-14T07:48:02;403.17;;;65.47;;
8254;SDS011;4167;48.162;11.542;2023-03-14T07:50:32;353.43;;;62.80;;
8254;SDS011;4167;48.162;11.542;2023-03-14T07:52:58;345.90;;;62.40;;
8254;SDS011;4167;48.162;11.542;2023-03-14T07:55:26;410.23;;;66.33;;
8254;SDS011;4167;48.162;11.542;2023-03-14T07:57:53;429.37;;;66.87;;
8254;SDS011;4167;48.162;11.542;2023-03-14T08:00:23;556.93;;;73.40;;
8254;SDS011;4167;48.162;11.542;2023-03-14T08:02:55;426.87;;;66.77;;
8254;SDS011;4167;48.162;11.542;2023-03-14T08:05:26;379.73;;;64.87;;
8254;SDS011;4167;48.162;11.542;2023-03-14T08:07:53;504.17;;;71.30;;
8254;SDS011;4167;48.162;11.542;2023-03-14T08:10:19;402.53;;;66.57;;
8254;SDS011;4167;48.162;11.542;2023-03-14T08:12:51;366.33;;;64.07;;
8254;SDS011;4167;48.162;11.542;2023-03-14T08:15:18;349.90;;;64.57;;
8254;SDS011;4167;48.162;11.542;2023-03-14T08:17:45;393.80;;;66.37;;
8254;SDS011;4167;48.162;11.542;2023-03-14T08:20:16;395.23;;;67.30;;
8254;SDS011;4167;48.162;11.542;2023-03-14T08:22:42;351.63;;;63.80;;
8254;SDS011;4167;48.162;11.542;2023-03-14T08:25:09;290.77;;;60.80;;
8254;SDS011;4167;48.162;11.542;2023-03-14T08:27:36;280.60;;;60.37;;
8254;SDS011;4167;48.162;11.542;2023-03-14T08:30:05;247.87;;;59.00;;
8254;SDS011;4167;48.162;11.542;2023-03-14T08:32:33;248.40;;;58.27;;
8254;SDS011;4167;48.162;11.542;2023-03-14T08:34:59;279.70;;;60.17;;
8254;SDS011;4167;48.162;11.542;2023-03-14T08:37:26;244.50;;;58.23;;
8254;SDS011;4167;48.162;11.542;2023-03-14T08:39:52;254.73;;;58.97;;
8254;SDS011;4167;48.162;11.542;2023-03-14T08:42:19;275.53;;;59.90;;
8254;SDS011;4167;48.162;11.542;2023-03-14T08:44:46;213.77;;;56.30;;
8254;SDS011;4167;48.162;11.542;2023-03-14T08:47:14;270.00;;;59.53;;
8254;SDS011;4167;48.162;11.542;2023-03-14T08:49:40;249.00;;;58.87;;
8254;SDS011;4167;48.162;11.542;2023-03-14T08:52:07;264.90;;;59.43;;
8254;SDS011;4167;48.162;11.542;2023-03-14T08:54:33;262.47;;;59.00;;
8254;SDS011;4167;48.162;11.542;2023-03-14T08:57:00;256.23;;;59.00;;
8254;SDS011;4167;48.162;11.542;2023-03-14T08:59:26;228.80;;;57.27;;
8254;SDS011;4167;48.162;11.542;2023-03-14T09:01:53;274.90;;;60.07;;
8254;SDS011;4167;48.162;11.542;2023-03-14T09:04:21;292.73;;;61.80;;
8254;SDS011;4167;48.162;11.542;2023-03-14T09:06:48;235.63;;;57.77;;
8254;SDS011;4167;48.162;11.542;2023-03-14T09:09:14;336.90;;;62.73;;
8254;SDS011;4167;48.162;11.542;2023-03-14T09:11:42;191.43;;;55.87;;
8254;SDS011;4167;48.162;11.542;2023-03-14T09:14:08;246.10;;;58.70;;
8254;SDS011;4167;48.162;11.542;2023-03-14T09:16:35;237.90;;;57.80;;
8254;SDS011;4167;48.162;11.542;2023-03-14T09:19:01;210.50;;;56.97;;
8254;SDS011;4167;48.162;11.542;2023-03-14T09:21:29;286.37;;;60.80;;
8254;SDS011;4167;48.162;11.542;2023-03-14T09:23:56;249.87;;;59.23;;
8254;SDS011;4167;48.162;11.542;2023-03-14T09:26:22;315.37;;;62.20;;
8254;SDS011;4167;48.162;11.542;2023-03-14T09:28:49;257.30;;;58.90;;
8254;SDS011;4167;48.162;11.542;2023-03-14T09:31:15;252.03;;;58.93;;
8254;SDS011;4167;48.162;11.542;2023-03-14T09:33:42;214.37;;;56.50;;
8254;SDS011;4167;48.162;11.542;2023-03-14T09:36:09;263.80;;;59.63;;
8254;SDS011;4167;48.162;11.542;2023-03-14T09:38:37;188.03;;;55.63;;
8254;SDS011;4167;48.162;11.542;2023-03-14T09:41:08;298.27;;;61.37;;
8254;SDS011;4167;48.162;11.542;2023-03-14T09:43:38;212.93;;;56.93;;
8254;SDS011;4167;48.162;11.542;2023-03-14T09:46:05;280.27;;;60.13;;
8254;SDS011;4167;48.162;11.542;2023-03-14T09:48:36;199.87;;;57.07;;
8254;SDS011;4167;48.162;11.542;2023-03-14T09:51:04;260.93;;;60.27;;
8254;SDS011;4167;48.162;11.542;2023-03-14T09:53:34;239.87;;;58.60;;
8254;SDS011;4167;48.162;11.542;2023-03-14T09:56:07;245.23;;;59.03;;
8254;SDS011;4167;48.162;11.542;2023-03-14T09:58:37;342.80;;;63.53;;
8254;SDS011;4167;48.162;11.542;2023-03-14T10:01:07;227.80;;;57.70;;
8254;SDS011;4167;48.162;11.542;2023-03-14T10:03:35;273.07;;;60.20;;
8254;SDS011;4167;48.162;11.542;2023-03-14T10:06:02;249.43;;;59.33;;
8254;SDS011;4167;48.162;11.542;2023-03-14T10:08:35;239.63;;;58.60;;
8254;SDS011;4167;48.162;11.542;2023-03-14T10:11:02;253.97;;;60.00;;
8254;SDS011;4167;48.162;11.542;2023-03-14T10:13:32;346.57;;;63.97;;
8254;SDS011;4167;48.162;11.542;2023-03-14T10:15:59;317.57;;;62.83;;
8254;SDS011;4167;48.162;11.542;2023-03-14T10:18:28;339.43;;;64.40;;
8254;SDS011;4167;48.162;11.542;2023-03-14T10:21:02;306.20;;;62.60;;
8254;SDS011;4167;48.162;11.542;2023-03-14T10:23:32;252.50;;;59.57;;
8254;SDS011;4167;48.162;11.542;2023-03-14T10:26:02;264.30;;;60.33;;
8254;SDS011;4167;48.162;11.542;2023-03-14T10:28:33;234.67;;;58.37;;
8254;SDS011;4167;48.162;11.542;2023-03-14T10:31:03;272.07;;;60.93;;
8254;SDS011;4167;48.162;11.542;2023-03-14T10:33:30;268.87;;;61.00;;
8254;SDS011;4167;48.162;11.542;2023-03-14T10:35:59;304.50;;;62.90;;
8254;SDS011;4167;48.162;11.542;2023-03-14T10:38:28;225.23;;;59.43;;
8254;SDS011;4167;48.162;11.542;2023-03-14T10:40:56;332.33;;;64.17;;
8254;SDS011;4167;48.162;11.542;2023-03-14T10:43:25;237.30;;;59.60;;
8254;SDS011;4167;48.162;11.542;2023-03-14T10:45:54;261.27;;;60.23;;
8254;SDS011;4167;48.162;11.542;2023-03-14T10:48:24;254.77;;;60.00;;
8254;SDS011;4167;48.162;11.542;2023-03-14T10:50:56;302.57;;;62.93;;
8254;SDS011;4167;48.162;11.542;2023-03-14T10:53:24;284.40;;;61.50;;
8254;SDS011;4167;48.162;11.542;2023-03-14T10:55:51;372.53;;;65.67;;
8254;SDS011;4167;48.162;11.542;2023-03-14T10:58:18;219.83;;;58.47;;
8254;SDS011;4167;48.162;11.542;2023-03-14T11:00:51;344.77;;;64.33;;
8254;SDS011;4167;48.162;11.542;2023-03-14T11:03:23;227.53;;;58.57;;
8254;SDS011;4167;48.162;11.542;2023-03-14T11:05:51;296.90;;;61.67;;
8254;SDS011;4167;48.162;11.542;2023-03-14T11:08:23;241.03;;;58.60;;
8254;SDS011;4167;48.162;11.542;2023-03-14T11:10:53;330.37;;;63.63;;
8254;SDS011;4167;48.162;11.542;2023-03-14T11:13:22;513.23;;;73.50;;
8254;SDS011;4167;48.162;11.542;2023-03-14T11:15:56;367.27;;;65.30;;
8254;SDS011;4167;48.162;11.542;2023-03-14T11:18:29;256.00;;;59.80;;
8254;SDS011;4167;48.162;11.542;2023-03-14T11:21:13;315.70;;;63.10;;
8254;SDS011;4167;48.162;11.542;2023-03-14T11:23:46;336.00;;;63.53;;
8254;SDS011;4167;48.162;11.542;2023-03-14T11:26:23;243.33;;;59.37;;
8254;SDS011;4167;48.162;11.542;2023-03-14T11:28:54;280.50;;;61.13;;
8254;SDS011;4167;48.162;11.542;2023-03-14T11:31:25;226.13;;;59.20;;
8254;SDS011;4167;48.162;11.542;2023-03-14T11:33:55;387.27;;;66.60;;
8254;SDS011;4167;48.162;11.542;2023-03-14T11:36:25;293.50;;;62.00;;
8254;SDS011;4167;48.162;11.542;2023-03-14T11:38:56;324.03;;;63.70;;
8254;SDS011;4167;48.162;11.542;2023-03-14T11:41:25;282.53;;;62.20;;
8254;SDS011;4167;48.162;11.542;2023-03-14T11:43:54;336.53;;;64.90;;
8254;SDS011;4167;48.162;11.542;2023-03-14T11:46:22;270.13;;;60.60;;
8254;SDS011;4167;48.162;11.542;2023-03-14T11:48:55;370.13;;;66.50;;
8254;SDS011;4167;48.162;11.542;2023-03-14T11:51:27;389.23;;;67.20;;
8254;SDS011;4167;48.162;11.542;2023-03-14T11:53:57;385.57;;;66.10;;
8254;SDS011;4167;48.162;11.542;2023-03-14T11:56:27;214.73;;;57.97;;
8254;SDS011;4167;48.162;11.542;2023-03-14T11:58:58;221.13;;;58.60;;
8254;SDS011;4167;48.162;11.542;2023-03-14T12:01:29;247.30;;;60.07;;
8254;SDS011;4167;48.162;11.542;2023-03-14T12:04:01;244.27;;;59.43;;
8254;SDS011;4167;48.162;11.542;2023-03-14T12:06:31;261.03;;;60.80;;
8254;SDS011;4167;48.162;11.542;2023-03-14T12:09:00;279.87;;;60.27;;
8254;SDS011;4167;48.162;11.542;2023-03-14T12:11:35;201.73;;;56.97;;
8254;SDS011;4167;48.162;11.542;2023-03-14T12:14:15;511.30;;;72.50;;
8254;SDS011;4167;48.162;11.542;2023-03-14T12:16:46;289.07;;;60.57;;
8254;SDS011;4167;48.162;11.542;2023-03-14T12:22:13;252.40;;;59.00;;
8254;SDS011;4167;48.162;11.542;2023-03-14T12:24:52;258.13;;;60.53;;
8254;SDS011;4167;48.162;11.542;2023-03-14T12:30:15;284.77;;;61.60;;
8254;SDS011;4167;48.162;11.542;2023-03-14T12:35:47;227.30;;;57.87;;
8254;SDS011;4167;48.162;11.542;2023-03-14T12:38:15;224.83;;;57.83;;
8254;SDS011;4167;48.162;11.542;2023-03-14T12:40:47;213.53;;;57.30;;
8254;SDS011;4167;48.162;11.542;2023-03-14T12:43:27;295.47;;;62.03;;
8254;SDS011;4167;48.162;11.542;2023-03-14T12:46:07;270.17;;;60.53;;
8254;SDS011;4167;48.162;11.542;2023-03-14T12:48:42;416.57;;;68.47;;
8254;SDS011;4167;48.162;11.542;2023-03-14T12:51:13;297.60;;;62.40;;
8254;SDS011;4167;48.162;11.542;2023-03-14T12:53:53;235.07;;;59.33;;
8254;SDS011;4167;48.162;11.542;2023-03-14T12:56:31;247.23;;;59.57;;
8254;SDS011;4167;48.162;11.542;2023-03-14T12:59:15;297.17;;;61.13;;
8254;SDS011;4167;48.162;11.542;2023-03-14T13:01:53;296.93;;;61.33;;
8254;SDS011;4167;48.162;11.542;2023-03-14T13:04:26;310.47;;;62.23;;
8254;SDS011;4167;48.162;11.542;2023-03-14T13:06:55;270.97;;;60.40;;
8254;SDS011;4167;48.162;11.542;2023-03-14T13:09:35;256.27;;;60.17;;
8254;SDS011;4167;48.162;11.542;2023-03-14T13:12:13;316.00;;;62.63;;
8254;SDS011;4167;48.162;11.542;2023-03-14T13:14:40;279.67;;;60.90;;
8254;SDS011;4167;48.162;11.542;2023-03-14T13:17:09;255.70;;;59.73;;
8254;SDS011;4167;48.162;11.542;2023-03-14T13:19:36;275.37;;;60.80;;
8254;SDS011;4167;48.162;11.542;2023-03-14T13:22:06;253.77;;;59.87;;
8254;SDS011;4167;48.162;11.542;2023-03-14T13:24:39;207.53;;;57.53;;
8254;SDS011;4167;48.162;11.542;2023-03-14T13:27:08;285.60;;;60.57;;
8254;SDS011;4167;48.162;11.542;2023-03-14T13:29:43;248.80;;;58.93;;
8254;SDS011;4167;48.162;11.542;2023-03-14T13:32:13;316.70;;;62.20;;
8254;SDS011;4167;48.162;11.542;2023-03-14T13:34:43;388.83;;;66.00;;
8254;SDS011;4167;48.162;11.542;2023-03-14T13:37:15;233.90;;;58.00;;
8254;SDS011;4167;48.162;11.542;2023-03-14T13:39:42;312.13;;;61.67;;
8254;SDS011;4167;48.162;11.542;2023-03-14T13:42:10;275.53;;;60.13;;
8254;SDS011;4167;48.162;11.542;2023-03-14T13:44:39;243.97;;;58.43;;
8254;SDS011;4167;48.162;11.542;2023-03-14T13:47:09;337.57;;;63.30;;
8254;SDS011;4167;48.162;11.542;2023-03-14T13:49:39;227.73;;;57.20;;
8254;SDS011;4167;48.162;11.542;2023-03-14T13:55:00;318.40;;;62.47;;
8254;SDS011;4167;48.162;11.542;2023-03-14T13:57:28;261.70;;;58.97;;
8254;SDS011;4167;48.162;11.542;2023-03-14T14:00:16;240.70;;;57.97;;
8254;SDS011;4167;48.162;11.542;2023-03-14T14:02:44;276.00;;;59.57;;
8254;SDS011;4167;48.162;11.542;2023-03-14T14:05:11;284.03;;;60.30;;
8254;SDS011;4167;48.162;11.542;2023-03-14T14:07:37;247.83;;;57.90;;
8254;SDS011;4167;48.162;11.542;2023-03-14T14:10:08;396.40;;;65.40;;
8254;SDS011;4167;48.162;11.542;2023-03-14T14:12:36;263.30;;;58.67;;
8254;SDS011;4167;48.162;11.542;2023-03-14T14:15:05;387.67;;;65.73;;
8254;SDS011;4167;48.162;11.542;2023-03-14T14:17:34;227.10;;;56.77;;
8254;SDS011;4167;48.162;11.542;2023-03-14T14:20:03;333.00;;;62.27;;
8254;SDS011;4167;48.162;11.542;2023-03-14T14:22:32;245.47;;;57.00;;
8254;SDS011;4167;48.162;11.542;2023-03-14T14:24:59;418.40;;;66.23;;
8254;SDS011;4167;48.162;11.542;2023-03-14T14:27:28;368.57;;;63.67;;
8254;SDS011;4167;48.162;11.542;2023-03-14T14:29:58;482.10;;;70.80;;
8254;SDS011;4167;48.162;11.542;2023-03-14T14:32:26;397.50;;;65.57;;
8254;SDS011;4167;48.162;11.542;2023-03-14T14:34:56;426.23;;;66.27;;
8254;SDS011;4167;48.162;11.542;2023-03-14T14:37:25;268.33;;;57.90;;
8254;SDS011;4167;48.162;11.542;2023-03-14T14:39:54;407.67;;;65.30;;